Pos First Name Last Name YOB Country Start
Num
Time Swim T1 Bike T2 Run
1 Michael Lori 1991 CAN 2 00:56:13 00:08:55 00:00:15 00:31:31 00:00:18 00:15:16
2 Jannik Schaufler 1997 GER 10 00:56:21 00:08:55 00:00:20 00:31:27 00:00:18 00:15:23
3 Ayan Beisenbayev 1996 KAZ 5 00:56:28 00:09:01 00:00:16 00:31:23 00:00:20 00:15:30
4 Kurt Wesley 1997 AUS 7 00:56:40 00:08:46 00:00:16 00:31:41 00:00:20 00:15:39
5 Andrea Secchiero 1988 ITA 1 00:56:53 00:08:56 00:00:10 00:31:39 00:00:13 00:15:58
6 Lukas Gstaltner 1998 AUT 14 00:56:57 00:09:06 00:00:17 00:31:14 00:00:22 00:16:01
7 Oliver Gorges 1998 LUX 18 00:57:01 00:08:57 00:00:20 00:31:29 00:00:21 00:15:57
8 Peer Sönksen 1998 GER 26 00:57:05 00:08:59 00:00:16 00:31:29 00:00:20 00:16:03
9 Philip Pertl 1998 AUT 16 00:57:12 00:09:00 00:00:18 00:31:19 00:00:21 00:16:16
10 Linus Stimmel 1996 GER 4 00:57:16 00:08:42 00:00:17 00:31:46 00:00:21 00:16:12
11 Mohamad Alsabbagh 1990 SYR 8 00:57:30 00:08:55 00:00:15 00:31:29 00:00:19 00:16:34
12 Jacopo Butturini 1991 CRO 22 00:57:34 00:08:52 00:00:17 00:31:35 00:00:21 00:16:32
13 Mehdi Essadiq 1986 MAR 12 00:57:39 00:09:00 00:00:21 00:31:25 00:00:22 00:16:33
14 Michael Arishita 1994 USA 3 00:57:41 00:09:11 00:00:14 00:31:16 00:00:23 00:16:39
15 Martin Demuth 1995 AUT 11 00:57:46 00:08:58 00:00:18 00:31:26 00:00:25 00:16:42
16 Mohamad Masoo 1993 SYR 9 00:58:08 00:08:56 00:00:18 00:31:29 00:00:21 00:17:05
17 László Tarnai 1993 HUN 17 00:58:17 00:09:09 00:00:16 00:31:14 00:00:33 00:17:06
18 Kotaro Watanabe 1994 JPN 6 00:58:37 00:08:57 00:00:17 00:31:24 00:00:28 00:17:34
19 Daryn Konysbayev 1999 KAZ 20 00:59:12 00:09:25 00:00:18 00:32:41 00:00:23 00:16:27
20 Luka Paliska 1997 CRO 24 00:59:27 00:09:16 00:00:15 00:32:48 00:00:20 00:16:50
21 Jiri Kalus 1993 CZE 39 00:59:49 00:09:03 00:00:17 00:33:02 00:00:22 00:17:07
22 Semen Pivovarov 1997 KAZ 19 01:00:15 00:09:12 00:00:18 00:32:57 00:00:26 00:17:23
23 Andrey Alypov 1997 RUS 15 01:02:23 00:09:12 00:00:16 00:32:50 00:00:28 00:19:39
24 Abdallah Abushabab 1997 PLE 42 01:02:31 00:09:12 00:00:18 00:32:55 00:00:28 00:19:39
25 Mohanad Elshafei 1999 EGY 35 01:04:35 00:08:56 00:00:20 00:36:24 00:00:19 00:18:38
26 Ali Zoobi 1987 LIB 31 01:05:13 00:10:28 00:00:23 00:35:34 00:00:23 00:18:27
27 Maxim Al Shbool 2001 JOR 38 01:07:39 00:09:01 00:00:17 00:37:18 00:00:20 00:20:43
28 Ebrahim Alromaihi 1991 QAT 30 01:07:48 00:10:31 00:00:23 00:35:36 00:00:27 00:20:52
29 Ayan Raad Dahnnon 1991 IRQ 28 01:10:30 00:12:45 00:00:39 00:36:07 00:00:40 00:20:22
LAP Jawhar Rasool 1986 IRQ 41 LAP 00:13:21 00:00:20 00:00:00 00:00:00 00:00:00
LAP Abbas Ahad Shakir 1994 IRQ 40 LAP 00:13:20 00:00:30 00:00:00 00:00:00 00:00:00
LAP Baqer Taher Idrees 2000 IRQ 34 LAP 00:12:46 00:00:35 00:00:00 00:00:00 00:00:00
LAP Shihab Jaber 1999 IRQ 44 LAP 00:12:57 00:00:36 00:00:00 00:00:00 00:00:00
LAP Nooh Sabeeh Jero 1998 IRQ 27 LAP 00:11:15 00:00:38 00:00:00 00:00:00 00:00:00
DNF Lakruwan Dewa 1990 SRI 43 DNF 00:11:17 00:00:21 00:58:03 00:00:00 00:00:00
DNF Kareem Othman 1998 JOR 25 DNF 00:09:08 00:00:17 00:00:00 00:00:00 00:00:00
DNF Omar Abushabab 1999 PLE 21 DNF 00:09:33 00:00:17 00:00:00 00:00:00 00:00:00
Program notes:

Technical Delegate: Adele Cheah/MAS. Head Referee: Adam Amawi/JOR. Competition Jury: Adele Cheah/MAS, Dr. Tareq AL Khayyat (JOR), Ammar Satari (JOR).
Distances: Swim 750m (1 lap), Bike 20 km (4 laps), Run 5 km (2 laps).
Water temperature 24ºC. Air Temperature 19ºC. Wetsuits not allowed.
Athlete #35 Elshafei/EGY served a 10 seconds penalty during the run segment.